createdAt,value
2023-04-04T00:00:53.987Z,0.30
2023-04-04T00:03:24.222Z,0.30
2023-04-04T00:05:52.537Z,0.30
2023-04-04T00:08:21.114Z,0.30
2023-04-04T00:10:48.997Z,0.30
2023-04-04T00:13:19.232Z,0.30
2023-04-04T00:15:47.178Z,0.20
2023-04-04T00:18:15.146Z,0.30
2023-04-04T00:20:43.256Z,0.30
2023-04-04T00:23:13.198Z,0.30
2023-04-04T00:25:41.370Z,0.30
2023-04-04T00:28:09.368Z,0.30
2023-04-04T00:30:39.600Z,0.30
2023-04-04T00:33:08.139Z,0.30
2023-04-04T00:35:37.033Z,0.20
2023-04-04T00:38:05.934Z,0.30
2023-04-04T00:40:33.979Z,0.30
2023-04-04T00:43:02.189Z,0.30
2023-04-04T00:45:31.337Z,0.30
2023-04-04T00:48:02.179Z,0.30
2023-04-04T00:50:32.162Z,0.30
2023-04-04T00:53:01.808Z,0.30
2023-04-04T00:55:29.922Z,0.30
2023-04-04T00:57:59.773Z,0.20
2023-04-04T01:00:27.770Z,0.30
2023-04-04T01:02:55.852Z,0.20
2023-04-04T01:05:25.453Z,0.20
2023-04-04T01:07:53.538Z,0.20
2023-04-04T01:10:22.108Z,0.20
2023-04-04T01:12:50.202Z,0.20
2023-04-04T01:15:19.059Z,0.20
2023-04-04T01:17:47.662Z,0.20
2023-04-04T01:20:17.136Z,0.20
2023-04-04T01:22:51.765Z,0.30
2023-04-04T01:25:21.988Z,0.30
2023-04-04T01:28:00.540Z,0.30
2023-04-04T01:30:33.342Z,0.30
2023-04-04T01:33:08.211Z,0.30
2023-04-04T01:35:42.390Z,0.30
2023-04-04T01:38:19.232Z,0.30
2023-04-04T01:40:50.417Z,0.40
2023-04-04T01:43:20.889Z,0.40
2023-04-04T01:45:49.842Z,0.40
2023-04-04T01:48:18.412Z,0.40
2023-04-04T01:50:56.986Z,0.40
2023-04-04T01:53:28.715Z,0.40
2023-04-04T01:55:56.630Z,0.40
2023-04-04T01:58:26.181Z,0.40
2023-04-04T02:00:59.647Z,0.30
2023-04-04T02:03:27.647Z,0.40
2023-04-04T02:05:57.620Z,0.40
2023-04-04T02:08:25.568Z,0.40
2023-04-04T02:10:58.685Z,0.40
2023-04-04T02:13:28.890Z,0.40
2023-04-04T02:15:58.925Z,0.40
2023-04-04T02:18:27.009Z,0.50
2023-04-04T02:21:01.173Z,0.50
2023-04-04T02:23:29.216Z,0.50
2023-04-04T02:25:57.111Z,0.50
2023-04-04T02:28:24.939Z,0.50
2023-04-04T02:30:56.694Z,0.60
2023-04-04T02:33:24.795Z,0.50
2023-04-04T02:35:53.360Z,0.50
2023-04-04T02:38:21.303Z,0.50
2023-04-04T02:40:50.033Z,0.50
2023-04-04T02:43:18.011Z,0.50
2023-04-04T02:45:48.939Z,0.60
2023-04-04T02:48:36.358Z,0.60
2023-04-04T02:51:04.725Z,0.60
2023-04-04T02:53:34.041Z,0.60
2023-04-04T02:56:20.619Z,0.60
2023-04-04T02:58:48.902Z,0.60
2023-04-04T03:01:16.935Z,0.50
2023-04-04T03:03:46.511Z,0.60
2023-04-04T03:06:14.874Z,0.60
2023-04-04T03:08:42.823Z,0.60
2023-04-04T03:11:11.416Z,0.60
2023-04-04T03:13:39.707Z,0.60
2023-04-04T03:16:08.215Z,0.60
2023-04-04T03:18:47.030Z,0.60
2023-04-04T03:21:15.072Z,0.70
2023-04-04T03:23:43.590Z,0.60
2023-04-04T03:26:11.737Z,0.50
2023-04-04T03:28:39.640Z,0.50
2023-04-04T03:31:08.144Z,0.50
2023-04-04T03:33:41.112Z,0.50
2023-04-04T03:36:14.843Z,0.50
2023-04-04T03:38:43.366Z,0.50
2023-04-04T03:41:11.795Z,0.50
2023-04-04T03:43:39.775Z,0.50
2023-04-04T03:46:08.255Z,0.50
2023-04-04T03:48:37.323Z,0.40
2023-04-04T03:51:08.546Z,0.40
2023-04-04T03:54:04.895Z,0.50
2023-04-04T03:56:33.128Z,0.50
2023-04-04T03:59:06.436Z,0.50
2023-04-04T04:01:34.456Z,0.50
2023-04-04T04:04:03.875Z,0.50
2023-04-04T04:06:31.953Z,0.50
2023-04-04T04:08:59.834Z,0.50
2023-04-04T04:11:30.376Z,0.50
2023-04-04T04:13:58.337Z,0.50
2023-04-04T04:16:26.366Z,0.50
2023-04-04T04:18:56.270Z,0.50
2023-04-04T04:21:34.586Z,0.50
2023-04-04T04:24:02.743Z,0.50
2023-04-04T04:26:32.223Z,0.50
2023-04-04T04:29:00.624Z,0.50
2023-04-04T04:31:31.478Z,0.50
2023-04-04T04:34:00.709Z,0.50
2023-04-04T04:36:31.857Z,0.50
2023-04-04T04:39:14.976Z,0.40
2023-04-04T04:41:58.237Z,0.40
2023-04-04T04:44:27.223Z,0.40
2023-04-04T04:46:57.058Z,0.40
2023-04-04T04:49:25.122Z,0.40
2023-04-04T04:51:54.126Z,0.40
2023-04-04T04:54:22.550Z,0.50
2023-04-04T04:56:55.364Z,0.50
2023-04-04T04:59:25.542Z,0.50
2023-04-04T05:01:53.678Z,0.50
2023-04-04T05:04:22.161Z,0.50
2023-04-04T05:07:01.891Z,0.50
2023-04-04T05:09:30.277Z,0.50
2023-04-04T05:11:58.319Z,0.50
2023-04-04T05:14:37.886Z,0.50
2023-04-04T05:17:07.169Z,0.60
2023-04-04T05:19:36.354Z,0.50
2023-04-04T05:22:04.637Z,0.50
2023-04-04T05:24:38.638Z,0.50
2023-04-04T05:27:07.525Z,0.60
2023-04-04T05:29:42.694Z,0.60
2023-04-04T05:32:11.638Z,0.60
2023-04-04T05:34:42.134Z,0.60
2023-04-04T05:37:14.463Z,0.70
2023-04-04T05:39:46.618Z,0.70
2023-04-04T05:42:14.689Z,0.70
2023-04-04T05:44:49.921Z,0.70
2023-04-04T05:47:17.935Z,0.70
2023-04-04T05:49:47.949Z,0.70
2023-04-04T05:52:16.218Z,0.80
2023-04-04T05:54:44.508Z,0.80
2023-04-04T05:57:17.674Z,0.80
2023-04-04T05:59:54.769Z,0.90
2023-04-04T06:02:22.893Z,0.90
2023-04-04T06:04:55.633Z,0.80
2023-04-04T06:07:35.954Z,0.70
2023-04-04T06:10:04.383Z,0.70
2023-04-04T06:12:33.780Z,0.80
2023-04-04T06:15:03.647Z,0.80
2023-04-04T06:17:31.779Z,0.90
2023-04-04T06:19:59.710Z,1.00
2023-04-04T06:22:27.694Z,1.10
2023-04-04T06:24:56.517Z,1.20
2023-04-04T06:27:27.106Z,1.20
2023-04-04T06:29:55.392Z,1.30
2023-04-04T06:32:26.258Z,1.40
2023-04-04T06:34:54.777Z,1.40
2023-04-04T06:37:36.485Z,1.50
2023-04-04T06:40:13.242Z,1.50
2023-04-04T06:42:54.022Z,1.50
2023-04-04T06:45:28.404Z,1.60
2023-04-04T06:48:01.741Z,1.60
2023-04-04T06:50:32.385Z,1.70
2023-04-04T06:53:02.163Z,1.70
2023-04-04T06:55:31.223Z,1.70
2023-04-04T06:57:59.192Z,1.60
2023-04-04T07:00:27.138Z,1.50
2023-04-04T07:03:00.210Z,1.60
2023-04-04T07:05:29.138Z,1.70
2023-04-04T07:07:57.183Z,1.90
2023-04-04T07:10:26.334Z,1.90
2023-04-04T07:12:54.347Z,2.10
2023-04-04T07:15:23.102Z,2.30
2023-04-04T07:17:51.120Z,2.50
2023-04-04T07:20:21.266Z,2.60
2023-04-04T07:22:50.039Z,2.40
2023-04-04T07:25:18.276Z,2.60
2023-04-04T07:27:46.278Z,2.60
2023-04-04T07:30:15.517Z,2.80
2023-04-04T07:32:43.432Z,2.90
2023-04-04T07:35:11.383Z,3.20
2023-04-04T07:37:40.661Z,3.20
2023-04-04T07:40:09.714Z,3.30
2023-04-04T07:42:38.093Z,3.40
2023-04-04T07:45:08.031Z,3.30
2023-04-04T07:47:36.065Z,2.90
2023-04-04T07:50:04.181Z,2.90
2023-04-04T07:52:32.086Z,3.00
2023-04-04T07:55:03.378Z,3.00
2023-04-04T07:57:31.269Z,2.70
2023-04-04T07:59:59.577Z,2.70
2023-04-04T08:02:27.517Z,2.80
2023-04-04T08:04:55.501Z,2.90
2023-04-04T08:07:23.914Z,2.80
2023-04-04T08:09:52.051Z,2.80
2023-04-04T08:12:21.280Z,2.80
2023-04-04T08:14:49.169Z,2.80
2023-04-04T08:17:18.971Z,2.90
2023-04-04T08:19:46.921Z,2.90
2023-04-04T08:22:14.803Z,2.90
2023-04-04T08:24:42.752Z,2.90
2023-04-04T08:27:11.075Z,2.90
2023-04-04T08:29:40.653Z,2.80
2023-04-04T08:32:09.169Z,2.80
2023-04-04T08:34:37.456Z,2.90
2023-04-04T08:37:05.438Z,2.60
2023-04-04T08:39:33.476Z,2.70
2023-04-04T08:42:05.237Z,2.60
2023-04-04T08:44:34.620Z,2.60
2023-04-04T08:47:06.125Z,2.60
2023-04-04T13:40:34.296Z,9.10
2023-04-04T13:43:02.186Z,7.20
2023-04-04T13:45:30.272Z,6.90
2023-04-04T13:47:58.150Z,6.70
2023-04-04T13:50:26.346Z,6.60
2023-04-04T13:52:54.690Z,6.60
2023-04-04T13:55:22.858Z,6.80
2023-04-04T13:57:52.150Z,6.90
2023-04-04T14:00:20.643Z,7.20
2023-04-04T14:02:49.757Z,7.70
2023-04-04T14:05:17.842Z,7.90
2023-04-04T14:07:46.075Z,7.90
2023-04-04T14:10:14.030Z,7.60
2023-04-04T14:12:41.990Z,7.10
2023-04-04T14:15:12.490Z,7.00
2023-04-04T14:17:40.609Z,6.80
2023-04-04T14:20:09.129Z,6.80
2023-04-04T14:22:37.153Z,7.00
2023-04-04T14:25:05.715Z,7.40
2023-04-04T14:27:33.908Z,7.80
2023-04-04T14:30:01.813Z,7.90
2023-04-04T14:32:32.668Z,7.90
2023-04-04T14:35:01.153Z,7.90
2023-04-04T14:37:29.185Z,7.80
2023-04-04T14:39:57.201Z,7.70
2023-04-04T14:42:25.369Z,7.50
2023-04-04T14:44:53.312Z,7.30
2023-04-04T14:47:22.012Z,7.40
2023-04-04T14:49:51.355Z,7.60
2023-04-04T14:52:19.249Z,7.70
2023-04-04T14:54:47.123Z,7.90
2023-04-04T14:57:15.052Z,7.80
2023-04-04T14:59:43.423Z,7.40
2023-04-04T15:02:11.377Z,7.20
2023-04-04T15:04:39.515Z,6.90
2023-04-04T15:07:08.859Z,6.80
2023-04-04T15:09:36.809Z,6.60
2023-04-04T15:12:04.785Z,6.40
2023-04-04T15:14:32.629Z,6.30
2023-04-04T15:17:00.537Z,6.20
2023-04-04T15:19:28.497Z,6.10
2023-04-04T15:21:57.126Z,6.00
2023-04-04T15:24:26.487Z,5.90
2023-04-04T15:26:56.457Z,5.90
2023-04-04T15:29:25.119Z,5.80
2023-04-04T15:31:53.084Z,5.70
2023-04-04T15:34:21.027Z,5.70
2023-04-04T15:36:50.764Z,5.70
2023-04-04T15:39:18.854Z,5.80
2023-04-04T15:41:48.110Z,6.10
2023-04-04T15:44:19.106Z,6.10
2023-04-04T15:46:47.271Z,6.00
2023-04-04T15:49:16.329Z,5.70
2023-04-04T15:51:45.082Z,5.50
2023-04-04T15:54:13.339Z,5.40
2023-04-04T15:56:43.586Z,5.40
2023-04-04T15:59:23.015Z,5.30
2023-04-04T16:02:07.173Z,5.10
2023-04-04T16:04:52.408Z,5.00
2023-04-04T16:07:35.926Z,5.00
2023-04-04T16:10:33.588Z,5.00
2023-04-04T16:13:50.594Z,5.00
2023-04-04T16:16:47.884Z,4.60
2023-04-04T16:20:01.370Z,4.30
2023-04-04T16:22:48.669Z,4.20
2023-04-04T16:25:43.424Z,4.20
2023-04-04T16:29:22.245Z,4.10
2023-04-04T16:49:19.844Z,3.90
2023-04-04T16:57:56.722Z,3.80
2023-04-04T17:01:01.743Z,3.60
2023-04-04T17:03:55.780Z,3.60
2023-04-04T17:06:56.082Z,3.60
2023-04-04T17:09:56.015Z,3.60
2023-04-04T17:15:46.899Z,3.60
2023-04-04T17:18:20.825Z,3.50
2023-04-04T17:20:53.322Z,3.40
2023-04-04T17:23:24.406Z,3.40
2023-04-04T17:25:55.494Z,3.30
2023-04-04T17:28:50.985Z,3.30
2023-04-04T17:31:19.058Z,3.20
2023-04-04T17:33:46.932Z,3.10
2023-04-04T17:36:19.527Z,3.00
2023-04-04T17:38:48.692Z,2.90
2023-04-04T17:41:25.446Z,2.80
2023-04-04T17:43:55.642Z,2.70
2023-04-04T17:46:25.497Z,2.60
2023-04-04T17:48:53.797Z,2.50
2023-04-04T17:51:22.489Z,2.40
2023-04-04T17:53:51.352Z,2.20
2023-04-04T17:56:19.396Z,2.10
2023-04-04T17:58:47.456Z,2.00
2023-04-04T18:01:17.799Z,1.90
2023-04-04T18:03:47.240Z,1.80
2023-04-04T18:06:15.872Z,1.70
2023-04-04T18:08:45.139Z,1.70
2023-04-04T18:11:13.378Z,1.60
2023-04-04T18:13:41.446Z,1.50
2023-04-04T18:16:09.889Z,1.50
2023-04-04T18:18:41.515Z,1.40
2023-04-04T18:21:09.783Z,1.40
2023-04-04T18:23:37.982Z,1.30
2023-04-04T18:26:06.949Z,1.30
2023-04-04T18:29:00.170Z,1.20
2023-04-04T18:31:28.124Z,1.10
2023-04-04T18:33:57.402Z,1.00
2023-04-04T18:36:26.623Z,0.90
2023-04-04T18:38:54.586Z,0.90
2023-04-04T18:41:22.671Z,0.80
2023-04-04T18:43:51.133Z,0.80
2023-04-04T18:47:11.733Z,0.70
2023-04-04T18:49:41.792Z,0.60
2023-04-04T18:52:09.797Z,0.50
2023-04-04T18:54:37.854Z,0.40
2023-04-04T18:57:11.292Z,0.40
2023-04-04T18:59:39.198Z,0.30
2023-04-04T19:02:09.306Z,0.30
2023-04-04T19:04:37.808Z,0.20
2023-04-04T19:07:07.750Z,0.20
2023-04-04T19:12:28.706Z,0.10
2023-04-04T19:15:16.605Z,0.00
2023-04-04T19:17:53.011Z,-0.10
2023-04-04T19:20:30.068Z,-0.10
2023-04-04T19:23:29.975Z,-0.20
2023-04-04T19:26:34.790Z,-0.30
2023-04-04T19:29:08.425Z,-0.30
2023-04-04T19:31:42.493Z,-0.40
2023-04-04T19:34:18.788Z,-0.40
2023-04-04T19:36:49.681Z,-0.50
2023-04-04T19:39:44.336Z,-0.50
2023-04-04T19:42:36.292Z,-0.60
2023-04-04T19:45:48.729Z,-0.70
2023-04-04T19:48:58.478Z,-0.80
2023-04-04T19:52:07.340Z,-0.80
2023-04-04T19:55:48.316Z,-0.90
2023-04-04T19:58:40.481Z,-0.90
2023-04-04T20:01:59.737Z,-1.10
2023-04-04T20:06:00.162Z,-1.10
2023-04-04T20:08:58.205Z,-1.20
2023-04-04T20:12:43.941Z,-1.20
2023-04-04T20:16:16.894Z,-1.30
2023-04-04T20:19:33.479Z,-1.40
2023-04-04T20:26:17.689Z,-1.50
2023-04-04T20:29:24.353Z,-1.60
2023-04-04T20:32:41.809Z,-1.70
2023-04-04T20:37:06.578Z,-1.70
2023-04-04T20:41:20.826Z,-1.90
2023-04-04T20:59:40.462Z,-2.20
2023-04-04T21:03:56.212Z,-2.20
2023-04-04T21:35:30.268Z,-2.30
2023-04-04T21:53:17.656Z,-2.30
2023-04-04T22:42:31.565Z,-2.20
